createdAt,value
2018-07-22T00:01:01.281Z,20.83
2018-07-22T00:03:30.417Z,20.89
2018-07-22T00:05:59.562Z,20.74
2018-07-22T00:08:28.665Z,20.83
2018-07-22T00:10:57.849Z,20.87
2018-07-22T00:13:26.966Z,20.73
2018-07-22T00:15:56.093Z,20.74
2018-07-22T00:18:25.201Z,20.80
2018-07-22T00:20:54.309Z,20.86
2018-07-22T00:23:23.450Z,20.86
2018-07-22T00:25:52.581Z,20.88
2018-07-22T00:28:21.686Z,20.82
2018-07-22T00:30:50.817Z,20.75
2018-07-22T00:33:19.909Z,20.71
2018-07-22T00:35:49.042Z,20.77
2018-07-22T00:38:18.138Z,20.82
2018-07-22T00:40:47.321Z,20.81
2018-07-22T00:43:16.423Z,20.60
2018-07-22T00:45:45.711Z,20.72
2018-07-22T00:48:14.802Z,20.77
2018-07-22T00:50:43.910Z,20.71
2018-07-22T00:53:13.005Z,20.55
2018-07-22T00:55:42.129Z,20.47
2018-07-22T00:58:11.241Z,20.69
2018-07-22T01:00:40.357Z,20.59
2018-07-22T01:03:09.477Z,20.52
2018-07-22T01:05:38.597Z,20.70
2018-07-22T01:08:07.687Z,20.81
2018-07-22T01:10:36.841Z,20.62
2018-07-22T01:13:06.313Z,20.70
2018-07-22T01:15:35.425Z,20.76
2018-07-22T01:18:04.550Z,20.69
2018-07-22T01:20:33.665Z,20.64
2018-07-22T01:23:02.792Z,20.49
2018-07-22T01:25:31.979Z,20.46
2018-07-22T01:28:01.074Z,20.43
2018-07-22T01:30:30.206Z,20.43
2018-07-22T01:32:59.297Z,20.48
2018-07-22T01:35:28.413Z,20.51
2018-07-22T01:37:57.521Z,20.48
2018-07-22T01:40:26.630Z,20.53
2018-07-22T01:42:55.721Z,20.61
2018-07-22T01:45:24.815Z,20.44
2018-07-22T01:47:53.921Z,20.56
2018-07-22T01:50:23.039Z,20.59
2018-07-22T01:52:52.849Z,20.60
2018-07-22T01:55:21.957Z,20.69
2018-07-22T01:57:51.081Z,20.70
2018-07-22T02:00:20.202Z,20.63
2018-07-22T02:02:49.319Z,20.63
2018-07-22T02:05:18.408Z,20.55
2018-07-22T02:07:47.509Z,20.41
2018-07-22T02:10:16.617Z,20.51
2018-07-22T02:12:45.726Z,20.55
2018-07-22T02:15:14.853Z,20.33
2018-07-22T02:17:43.945Z,20.30
2018-07-22T02:20:13.049Z,20.27
2018-07-22T02:22:42.145Z,20.30
2018-07-22T02:25:11.258Z,20.33
2018-07-22T02:27:40.421Z,20.28
2018-07-22T02:30:09.930Z,20.30
2018-07-22T02:32:39.051Z,20.31
2018-07-22T02:35:08.140Z,20.35
2018-07-22T02:37:37.326Z,20.24
2018-07-22T02:40:06.485Z,20.17
2018-07-22T02:42:35.589Z,20.33
2018-07-22T02:45:04.726Z,20.27
2018-07-22T02:47:33.821Z,20.15
2018-07-22T02:50:02.981Z,20.24
2018-07-22T02:52:32.092Z,20.07
2018-07-22T02:55:01.210Z,20.25
2018-07-22T02:57:30.310Z,20.16
2018-07-22T02:59:59.466Z,20.29
2018-07-22T03:02:28.602Z,20.18
2018-07-22T03:04:57.809Z,20.27
2018-07-22T03:07:26.909Z,20.28
2018-07-22T03:09:56.023Z,20.30
2018-07-22T03:12:25.137Z,20.32
2018-07-22T03:14:54.245Z,20.33
2018-07-22T03:17:23.342Z,20.33
2018-07-22T03:19:52.427Z,20.30
2018-07-22T03:22:21.550Z,20.27
2018-07-22T03:24:50.640Z,20.23
2018-07-22T03:27:19.738Z,20.22
2018-07-22T03:29:48.843Z,20.25
2018-07-22T03:32:17.941Z,20.23
2018-07-22T03:34:47.079Z,20.18
2018-07-22T03:37:16.177Z,20.22
2018-07-22T03:39:45.273Z,20.13
2018-07-22T03:42:14.381Z,20.15
2018-07-22T03:44:43.481Z,20.12
2018-07-22T03:47:12.604Z,20.25
2018-07-22T03:49:41.693Z,20.10
2018-07-22T03:52:10.814Z,20.13
2018-07-22T03:54:39.925Z,20.15
2018-07-22T03:57:09.025Z,20.14
2018-07-22T03:59:38.125Z,20.09
2018-07-22T04:02:07.229Z,20.13
2018-07-22T04:04:36.324Z,20.10
2018-07-22T04:07:05.538Z,20.06
2018-07-22T04:09:34.554Z,20.12
2018-07-22T04:12:03.677Z,20.04
2018-07-22T04:14:32.788Z,20.11
2018-07-22T04:17:02.081Z,20.12
2018-07-22T04:19:31.190Z,19.89
2018-07-22T04:22:00.306Z,20.00
2018-07-22T04:24:29.433Z,20.04
2018-07-22T04:26:58.590Z,20.06
2018-07-22T04:29:27.673Z,20.00
2018-07-22T04:31:56.777Z,20.07
2018-07-22T04:34:25.862Z,20.03
2018-07-22T04:36:54.969Z,20.03
2018-07-22T04:39:24.079Z,20.01
2018-07-22T04:41:53.250Z,19.98
2018-07-22T04:44:22.357Z,19.95
2018-07-22T04:46:51.865Z,20.04
2018-07-22T04:49:20.960Z,20.04
2018-07-22T04:51:50.089Z,20.15
2018-07-22T04:54:19.197Z,20.02
2018-07-22T04:56:48.314Z,20.02
2018-07-22T04:59:17.414Z,20.08
2018-07-22T05:01:46.553Z,20.06
2018-07-22T05:04:15.657Z,19.98
2018-07-22T05:06:44.765Z,20.01
2018-07-22T05:09:13.969Z,20.02
2018-07-22T05:11:43.070Z,19.92
2018-07-22T05:14:12.166Z,19.97
2018-07-22T05:16:41.281Z,19.98
2018-07-22T05:19:10.381Z,20.01
2018-07-22T05:21:39.493Z,19.92
2018-07-22T05:24:08.781Z,20.03
2018-07-22T05:26:38.159Z,20.03
2018-07-22T05:29:07.578Z,19.94
2018-07-22T05:31:36.701Z,19.95
2018-07-22T05:34:06.005Z,19.92
2018-07-22T05:36:35.179Z,19.64
2018-07-22T05:39:06.425Z,19.70
2018-07-22T05:41:35.551Z,19.79
2018-07-22T05:44:04.873Z,19.97
2018-07-22T05:46:34.029Z,19.86
2018-07-22T05:49:03.297Z,19.93
2018-07-22T05:51:32.626Z,20.01
2018-07-22T05:54:01.751Z,19.95
2018-07-22T05:56:30.874Z,19.78
2018-07-22T05:58:59.961Z,19.66
2018-07-22T06:01:29.105Z,19.80
2018-07-22T06:03:58.209Z,19.91
2018-07-22T06:06:27.329Z,19.98
2018-07-22T06:08:56.421Z,19.92
2018-07-22T06:11:25.544Z,19.82
2018-07-22T06:13:54.741Z,19.91
2018-07-22T06:16:23.845Z,19.93
2018-07-22T06:18:52.982Z,19.90
2018-07-22T06:21:22.077Z,19.73
2018-07-22T06:23:51.169Z,19.72
2018-07-22T06:26:20.293Z,19.74
2018-07-22T06:28:49.388Z,19.83
2018-07-22T06:31:18.569Z,19.91
2018-07-22T06:33:47.677Z,19.84
2018-07-22T06:36:16.781Z,20.12
2018-07-22T06:38:45.881Z,20.13
2018-07-22T06:41:15.093Z,20.15
2018-07-22T06:43:44.138Z,20.33
2018-07-22T06:46:13.430Z,20.24
2018-07-22T06:48:42.502Z,20.12
2018-07-22T06:51:11.689Z,20.18
2018-07-22T06:53:40.957Z,20.44
2018-07-22T06:56:10.026Z,20.38
2018-07-22T06:58:39.249Z,20.61
2018-07-22T07:01:08.361Z,20.47
2018-07-22T07:03:37.466Z,20.88
2018-07-22T07:06:06.601Z,21.21
2018-07-22T07:08:35.717Z,21.34
2018-07-22T07:11:04.928Z,21.48
2018-07-22T07:13:33.959Z,21.60
2018-07-22T07:16:03.089Z,21.61
2018-07-22T07:18:32.305Z,21.92
2018-07-22T07:21:01.442Z,22.23
2018-07-22T07:23:30.577Z,22.03
2018-07-22T07:25:59.685Z,22.22
2018-07-22T07:28:28.814Z,22.46
2018-07-22T07:30:57.930Z,21.79
2018-07-22T07:33:27.078Z,21.80
2018-07-22T07:35:56.817Z,22.41
2018-07-22T07:38:25.973Z,23.26
2018-07-22T07:40:55.105Z,23.43
2018-07-22T07:43:24.228Z,23.49
2018-07-22T07:45:53.393Z,23.53
2018-07-22T07:48:22.569Z,23.46
2018-07-22T07:50:51.693Z,22.91
2018-07-22T07:53:20.833Z,22.49
2018-07-22T07:55:49.928Z,22.65
2018-07-22T07:58:19.193Z,22.73
2018-07-22T08:00:48.297Z,22.67
2018-07-22T08:03:17.429Z,23.32
2018-07-22T08:05:46.589Z,22.97
2018-07-22T08:08:15.709Z,23.13
2018-07-22T08:10:44.853Z,23.97
2018-07-22T08:13:13.974Z,23.89
2018-07-22T08:15:43.089Z,24.98
2018-07-22T08:18:12.226Z,24.25
2018-07-22T08:20:41.398Z,24.67
2018-07-22T08:23:10.521Z,23.92
2018-07-22T08:25:39.774Z,24.32
2018-07-22T08:28:08.906Z,23.66
2018-07-22T08:30:38.125Z,23.72
2018-07-22T08:33:07.181Z,24.36
2018-07-22T08:35:36.303Z,24.42
2018-07-22T08:38:05.505Z,23.96
2018-07-22T08:40:34.726Z,24.67
2018-07-22T08:43:03.849Z,24.57
2018-07-22T08:45:32.973Z,24.25
2018-07-22T08:48:02.093Z,24.21
2018-07-22T08:50:31.222Z,24.64
2018-07-22T08:53:00.333Z,24.95
2018-07-22T08:55:29.481Z,25.26
2018-07-22T08:57:58.749Z,25.50
2018-07-22T09:00:27.915Z,25.57
2018-07-22T09:02:57.044Z,24.87
2018-07-22T09:05:26.148Z,25.30
2018-07-22T09:07:55.257Z,24.75
2018-07-22T09:10:24.497Z,25.33
2018-07-22T09:12:53.658Z,25.58
2018-07-22T09:15:22.775Z,26.21
2018-07-22T09:17:51.990Z,26.54
2018-07-22T09:20:21.038Z,26.91
2018-07-22T09:22:50.158Z,25.92
2018-07-22T09:25:19.314Z,26.02
2018-07-22T09:27:48.450Z,27.18
2018-07-22T09:30:17.579Z,26.24
2018-07-22T09:32:46.701Z,26.32
2018-07-22T09:35:15.805Z,26.34
2018-07-22T09:37:45.061Z,26.71
2018-07-22T09:40:14.264Z,25.67
2018-07-22T09:42:43.378Z,25.69
2018-07-22T09:45:12.660Z,25.64
2018-07-22T09:47:41.762Z,25.87
2018-07-22T09:50:10.937Z,25.43
2018-07-22T09:52:40.138Z,26.10
2018-07-22T09:55:09.282Z,26.89
2018-07-22T09:57:38.509Z,26.84
2018-07-22T10:00:07.778Z,26.72
2018-07-22T10:02:36.990Z,28.06
2018-07-22T10:05:06.230Z,27.82
2018-07-22T10:07:35.343Z,27.93
2018-07-22T10:10:06.537Z,27.36
2018-07-22T10:12:35.770Z,27.83
2018-07-22T10:15:05.362Z,27.16
2018-07-22T10:17:34.537Z,27.47
2018-07-22T10:20:03.629Z,27.62
2018-07-22T10:22:33.158Z,27.53
2018-07-22T10:25:02.398Z,27.45
2018-07-22T10:27:31.583Z,28.23
2018-07-22T10:30:00.715Z,28.25
2018-07-22T10:32:29.985Z,28.14
2018-07-22T10:34:59.176Z,27.42
2018-07-22T10:37:28.389Z,26.92
2018-07-22T10:39:57.585Z,27.18
2018-07-22T10:42:26.713Z,26.95
2018-07-22T10:44:55.854Z,26.87
2018-07-22T10:47:24.983Z,27.90
2018-07-22T10:49:54.133Z,27.24
2018-07-22T10:52:23.248Z,27.89
2018-07-22T10:54:52.397Z,28.13
2018-07-22T10:57:21.505Z,27.36
2018-07-22T10:59:50.633Z,27.36
2018-07-22T11:02:19.791Z,27.01
2018-07-22T11:04:48.937Z,27.08
2018-07-22T11:07:18.048Z,26.61
2018-07-22T11:09:47.443Z,26.83
2018-07-22T11:12:16.585Z,27.11
2018-07-22T11:14:45.804Z,27.59
2018-07-22T11:17:15.018Z,28.26
2018-07-22T11:19:44.235Z,27.71
2018-07-22T11:22:13.432Z,27.50
2018-07-22T11:24:42.545Z,27.25
2018-07-22T11:27:11.746Z,27.57
2018-07-22T11:29:40.872Z,27.75
2018-07-22T11:32:10.052Z,27.81
2018-07-22T11:34:39.153Z,27.53
2018-07-22T11:37:08.302Z,27.78
2018-07-22T11:39:37.426Z,28.32
2018-07-22T11:42:06.563Z,28.03
2018-07-22T11:44:35.669Z,28.22
2018-07-22T11:47:04.804Z,28.20
2018-07-22T11:49:33.949Z,28.08
2018-07-22T11:52:03.066Z,28.31
2018-07-22T11:54:32.193Z,28.13
2018-07-22T11:57:01.322Z,28.53
2018-07-22T11:59:30.473Z,28.81
2018-07-22T12:01:59.679Z,28.72
2018-07-22T12:04:28.794Z,28.70
2018-07-22T12:06:57.982Z,28.31
2018-07-22T12:09:27.091Z,28.55
2018-07-22T12:11:56.259Z,29.36
2018-07-22T12:14:25.401Z,29.59
2018-07-22T12:16:54.529Z,29.19
2018-07-22T12:19:23.660Z,28.87
2018-07-22T12:21:52.853Z,28.96
2018-07-22T12:24:21.981Z,29.21
2018-07-22T12:26:51.110Z,28.98
2018-07-22T12:29:20.246Z,28.90
2018-07-22T12:31:49.869Z,28.96
2018-07-22T12:34:19.058Z,28.66
2018-07-22T12:36:49.267Z,28.83
2018-07-22T12:39:18.437Z,28.82
2018-07-22T12:41:47.849Z,28.89
2018-07-22T12:44:16.945Z,29.32
2018-07-22T12:46:46.081Z,29.14
2018-07-22T12:49:15.213Z,29.44
2018-07-22T12:51:44.368Z,28.91
2018-07-22T12:54:14.797Z,29.06
2018-07-22T12:56:43.975Z,28.80
2018-07-22T12:59:13.282Z,28.33
2018-07-22T13:01:43.151Z,28.65
2018-07-22T13:04:12.273Z,29.06
2018-07-22T13:06:41.426Z,29.30
2018-07-22T13:09:11.033Z,29.38
2018-07-22T13:11:41.017Z,29.27
2018-07-22T13:14:10.138Z,28.92
2018-07-22T13:16:39.268Z,28.83
2018-07-22T13:19:08.382Z,29.14
2018-07-22T13:21:37.593Z,29.51
2018-07-22T13:24:06.737Z,28.79
2018-07-22T13:26:35.875Z,28.59
2018-07-22T13:29:04.977Z,28.72
2018-07-22T13:31:34.133Z,29.00
2018-07-22T13:34:03.266Z,29.28
2018-07-22T13:36:32.377Z,29.72
2018-07-22T13:39:02.780Z,28.48
2018-07-22T13:41:31.902Z,28.41
2018-07-22T13:44:01.112Z,28.35
2018-07-22T13:46:30.242Z,28.77
2018-07-22T13:48:59.345Z,28.64
2018-07-22T13:51:28.745Z,28.14
2018-07-22T13:53:57.841Z,28.41
2018-07-22T13:56:26.981Z,28.71
2018-07-22T13:58:56.093Z,28.68
2018-07-22T14:01:25.205Z,28.51
2018-07-22T14:03:54.298Z,28.65
2018-07-22T14:06:23.420Z,29.03
2018-07-22T14:08:53.574Z,28.63
2018-07-22T14:11:22.692Z,28.67
2018-07-22T14:13:51.801Z,28.99
2018-07-22T14:16:20.929Z,29.10
2018-07-22T14:18:50.177Z,29.25
2018-07-22T14:21:19.300Z,29.18
2018-07-22T14:23:49.034Z,28.85
2018-07-22T14:26:20.011Z,29.00
2018-07-22T14:28:49.498Z,29.39
2018-07-22T14:31:18.884Z,29.10
2018-07-22T14:33:48.074Z,29.13
2018-07-22T14:36:17.210Z,29.00
2018-07-22T14:38:46.606Z,29.58
2018-07-22T14:41:16.023Z,29.11
2018-07-22T14:43:45.112Z,28.95
2018-07-22T14:46:14.742Z,29.39
2018-07-22T14:48:43.869Z,29.75
2018-07-22T14:51:13.158Z,28.89
2018-07-22T14:53:42.319Z,28.53
2018-07-22T14:56:11.410Z,28.67
2018-07-22T14:58:40.918Z,28.65
2018-07-22T15:01:12.536Z,28.43
2018-07-22T15:03:43.177Z,28.40
2018-07-22T15:06:12.874Z,28.49
2018-07-22T15:08:42.469Z,28.49
2018-07-22T15:11:11.582Z,28.28
2018-07-22T15:13:40.775Z,28.50
2018-07-22T15:16:09.953Z,28.36
2018-07-22T15:18:39.177Z,28.55
2018-07-22T15:21:08.306Z,29.10
2018-07-22T15:23:37.425Z,29.30
2018-07-22T15:26:06.649Z,29.33
2018-07-22T15:28:35.751Z,29.35
2018-07-22T15:31:04.914Z,29.24
2018-07-22T15:33:34.033Z,29.54
2018-07-22T15:36:03.153Z,29.53
2018-07-22T15:38:32.295Z,29.55
2018-07-22T15:41:01.413Z,29.61
2018-07-22T15:43:30.534Z,29.33
2018-07-22T15:45:59.670Z,28.99
2018-07-22T15:48:28.777Z,29.46
2018-07-22T15:50:57.890Z,29.27
2018-07-22T15:53:27.110Z,29.31
2018-07-22T15:55:56.269Z,29.29
2018-07-22T15:58:25.621Z,28.94
2018-07-22T16:00:54.730Z,28.65
2018-07-22T16:03:23.850Z,28.70
2018-07-22T16:05:52.961Z,28.45
2018-07-22T16:08:22.081Z,28.42
2018-07-22T16:10:52.325Z,28.34
2018-07-22T16:13:21.425Z,28.33
2018-07-22T16:15:50.548Z,28.46
2018-07-22T16:18:20.162Z,28.44
2018-07-22T16:20:49.577Z,28.58
2018-07-22T16:23:18.979Z,28.52
2018-07-22T16:25:48.109Z,28.54
2018-07-22T16:28:17.277Z,28.37
2018-07-22T16:30:46.393Z,28.15
2018-07-22T16:33:15.545Z,28.12
2018-07-22T16:35:45.179Z,28.02
2018-07-22T16:38:14.319Z,27.98
2018-07-22T16:40:43.864Z,27.94
2018-07-22T16:43:13.193Z,27.85
2018-07-22T16:45:42.883Z,27.84
2018-07-22T16:48:12.033Z,27.74
2018-07-22T16:50:41.125Z,27.93
2018-07-22T16:53:10.533Z,27.77
2018-07-22T16:55:39.661Z,27.86
2018-07-22T16:58:08.773Z,27.87
2018-07-22T17:00:37.949Z,27.82
2018-07-22T17:03:07.099Z,27.67
2018-07-22T17:05:36.221Z,27.68
2018-07-22T17:08:05.370Z,27.73
2018-07-22T17:10:34.826Z,27.53
2018-07-22T17:13:04.053Z,27.45
2018-07-22T17:15:33.186Z,27.32
2018-07-22T17:18:02.306Z,27.31
2018-07-22T17:20:31.429Z,27.42
2018-07-22T17:23:00.513Z,27.29
2018-07-22T17:25:29.706Z,27.16
2018-07-22T17:27:58.825Z,27.09
2018-07-22T17:30:27.926Z,27.01
2018-07-22T17:32:57.041Z,26.98
2018-07-22T17:35:26.157Z,26.95
2018-07-22T17:37:55.392Z,27.10
2018-07-22T17:40:24.525Z,27.20
2018-07-22T17:42:53.647Z,27.21
2018-07-22T17:45:22.753Z,27.21
2018-07-22T17:47:51.854Z,27.21
2018-07-22T17:50:20.991Z,27.13
2018-07-22T17:52:50.109Z,27.13
2018-07-22T17:55:19.245Z,27.11
2018-07-22T17:57:48.462Z,27.03
2018-07-22T18:00:17.637Z,26.92
2018-07-22T18:02:52.668Z,27.07
2018-07-22T18:05:21.633Z,27.07
2018-07-22T18:07:50.737Z,27.01
2018-07-22T18:10:19.850Z,26.95
2018-07-22T18:12:48.959Z,26.94
2018-07-22T18:15:18.216Z,26.76
2018-07-22T18:17:47.647Z,26.76
2018-07-22T18:20:16.818Z,26.70
2018-07-22T18:22:46.193Z,26.75
2018-07-22T18:25:15.794Z,26.64
2018-07-22T18:27:45.203Z,26.62
2018-07-22T18:30:14.994Z,26.58
2018-07-22T18:32:44.125Z,26.51
2018-07-22T18:35:13.257Z,26.53
2018-07-22T18:37:42.411Z,26.51
2018-07-22T18:40:11.502Z,26.51
2018-07-22T18:42:40.749Z,26.48
2018-07-22T18:45:10.142Z,26.50
2018-07-22T18:47:39.709Z,26.58
2018-07-22T18:50:08.864Z,26.54
2018-07-22T18:52:37.953Z,26.53
2018-07-22T18:55:07.146Z,26.53
2018-07-22T18:57:36.369Z,26.63
2018-07-22T19:00:05.821Z,26.43
2018-07-22T19:02:34.945Z,26.38
2018-07-22T19:05:04.205Z,26.44
2018-07-22T19:07:33.257Z,26.27
2018-07-22T19:10:02.429Z,26.29
2018-07-22T19:12:31.559Z,26.29
2018-07-22T19:15:00.782Z,26.20
2018-07-22T19:17:29.916Z,26.24
2018-07-22T19:20:04.941Z,26.14
2018-07-22T19:22:45.000Z,26.11
2018-07-22T19:25:14.256Z,26.03
2018-07-22T19:27:43.426Z,26.11
2018-07-22T19:30:13.026Z,26.09
2018-07-22T19:32:42.169Z,26.10
2018-07-22T19:35:11.293Z,26.06
2018-07-22T19:37:40.416Z,26.00
2018-07-22T19:40:09.576Z,25.97
2018-07-22T19:42:38.776Z,25.90
2018-07-22T19:45:07.962Z,26.05
2018-07-22T19:47:37.101Z,25.83
2018-07-22T19:50:06.305Z,25.83
2018-07-22T19:52:35.437Z,25.86
2018-07-22T19:55:04.638Z,25.74
2018-07-22T19:57:33.789Z,25.62
2018-07-22T20:00:04.502Z,25.62
2018-07-22T20:02:33.733Z,25.63
2018-07-22T20:05:03.265Z,25.45
2018-07-22T20:07:32.391Z,25.37
2018-07-22T20:10:01.634Z,25.56
2018-07-22T20:12:30.797Z,25.28
2018-07-22T20:14:59.939Z,25.13
2018-07-22T20:17:29.146Z,25.09
2018-07-22T20:19:58.289Z,24.99
2018-07-22T20:22:27.401Z,24.95
2018-07-22T20:24:56.548Z,25.02
2018-07-22T20:27:25.635Z,24.86
2018-07-22T20:29:54.763Z,24.87
2018-07-22T20:32:23.918Z,24.94
2018-07-22T20:34:53.057Z,24.84
2018-07-22T20:37:22.383Z,24.96
2018-07-22T20:39:51.502Z,24.85
2018-07-22T20:42:20.640Z,24.34
2018-07-22T20:44:49.781Z,24.53
2018-07-22T20:47:19.202Z,24.48
2018-07-22T20:49:48.421Z,24.44
2018-07-22T20:52:28.646Z,24.22
2018-07-22T20:54:57.821Z,24.17
2018-07-22T20:57:26.974Z,24.17
2018-07-22T20:59:56.102Z,23.95
2018-07-22T21:02:25.225Z,23.91
2018-07-22T21:04:54.361Z,24.20
2018-07-22T21:07:23.471Z,23.95
2018-07-22T21:09:55.795Z,23.98
2018-07-22T21:12:48.578Z,23.87
2018-07-22T21:15:19.084Z,23.87
2018-07-22T21:17:49.115Z,23.88
2018-07-22T21:20:19.286Z,23.56
2018-07-22T21:22:48.433Z,23.84
2018-07-22T21:25:18.006Z,23.76
2018-07-22T21:27:47.249Z,23.70
2018-07-22T21:30:16.621Z,23.58
2018-07-22T21:32:45.808Z,23.55
2018-07-22T21:35:14.974Z,23.30
2018-07-22T21:37:44.121Z,23.27
2018-07-22T21:40:13.337Z,23.52
2018-07-22T21:42:42.457Z,23.63
2018-07-22T21:45:11.629Z,23.45
2018-07-22T21:47:40.748Z,23.29
2018-07-22T21:50:09.917Z,23.30
2018-07-22T21:52:39.045Z,23.06
2018-07-22T21:55:08.206Z,23.24
2018-07-22T21:57:37.569Z,23.13
2018-07-22T22:00:13.221Z,23.05
2018-07-22T22:02:42.412Z,23.09
2018-07-22T22:05:11.538Z,22.79
2018-07-22T22:07:40.667Z,22.99
2018-07-22T22:10:09.825Z,22.97
2018-07-22T22:12:38.965Z,22.79
2018-07-22T22:15:17.749Z,22.81
2018-07-22T22:17:48.418Z,22.86
2018-07-22T22:20:18.940Z,22.75
2018-07-22T22:22:48.281Z,22.76
2018-07-22T22:25:17.742Z,22.94
2018-07-22T22:27:46.938Z,22.95
2018-07-22T22:30:16.946Z,22.87
2018-07-22T22:32:46.613Z,22.75
2018-07-22T22:35:15.745Z,22.56
2018-07-22T22:37:45.620Z,22.67
2018-07-22T22:40:15.570Z,22.22
2018-07-22T22:42:45.649Z,22.38
2018-07-22T22:45:15.397Z,21.98
2018-07-22T22:47:48.667Z,22.25
2018-07-22T22:50:17.849Z,22.21
2018-07-22T22:52:47.049Z,22.01
2018-07-22T22:55:16.182Z,22.23
2018-07-22T22:57:56.690Z,22.06
2018-07-22T23:00:25.826Z,22.17
2018-07-22T23:02:54.945Z,22.24
2018-07-22T23:05:24.057Z,22.18
2018-07-22T23:07:53.190Z,22.24
2018-07-22T23:10:22.311Z,21.92
2018-07-22T23:12:51.468Z,22.05
2018-07-22T23:15:20.645Z,22.06
2018-07-22T23:17:49.789Z,22.00
2018-07-22T23:20:18.933Z,22.01
2018-07-22T23:22:48.045Z,21.98
2018-07-22T23:25:17.210Z,21.69
2018-07-22T23:27:46.321Z,22.01
2018-07-22T23:30:15.461Z,21.95
2018-07-22T23:32:44.614Z,21.82
2018-07-22T23:35:13.746Z,21.73
2018-07-22T23:37:42.856Z,21.70
2018-07-22T23:40:12.733Z,21.67
2018-07-22T23:42:41.862Z,21.37
2018-07-22T23:45:10.989Z,21.59
2018-07-22T23:47:40.126Z,21.65
2018-07-22T23:50:09.345Z,21.75
2018-07-22T23:52:38.485Z,21.62
2018-07-22T23:55:07.617Z,21.69
2018-07-22T23:57:37.129Z,21.38
